Disclaimer

Please do not use the information listed here in-flight or in-navigation, as they are not provided to us by the airports but are provided by volunteers, so they might be outdated.

Search


Regions


Airport information page

Radio informations:
Brisbane Center - 122.1 MHz
Common traffic adv. frequency (CTAF) - 126.7 MHz

Airport informations:
Latitude: 19° 38' 04.00" S
Longitude: 134° 11' 00.00" E
Elevation: 1236 feet - 377 meters
Operating hours: N/A
Operating agency: Civil government, landing fees and diplomatic clearance may be required
Timezone: UTC+9:30
Fuel: Jet A1, without icing nhibitor.

100/130 MIL Spec, low lead, aviation gasoline (BLUE)

Runway information:
07/25 - 6427 x 98 feet< - >1959 x 30 meters
11/29 - 3468 x 59 feet< - >1057 x 18 meters

Recent METARs:
YTNK 181600Z AUTO 36011KT 9999 // NCD 32/17 Q1006
YTNK 181600Z AUTO 36011KT 9999 // NCD 32/17 Q1006
YTNK 181700Z AUTO 34011KT 9999 // NCD 31/18 Q1006

Airport on the map: